createdAt,value
2017-08-14T00:00:52.779Z,3.80
2017-08-14T00:03:21.481Z,4.50
2017-08-14T00:05:49.207Z,4.10
2017-08-14T00:08:17.033Z,4.70
2017-08-14T00:10:44.757Z,4.00
2017-08-14T00:13:12.525Z,4.33
2017-08-14T00:15:40.282Z,4.70
2017-08-14T00:18:08.024Z,4.43
2017-08-14T00:20:35.751Z,4.40
2017-08-14T00:23:03.511Z,4.30
2017-08-14T00:25:31.252Z,4.30
2017-08-14T00:27:58.976Z,4.40
2017-08-14T00:30:26.736Z,3.90
2017-08-14T00:32:54.455Z,3.20
2017-08-14T00:35:23.144Z,4.03
2017-08-14T00:37:50.910Z,4.70
2017-08-14T00:40:18.654Z,4.50
2017-08-14T00:42:46.411Z,3.63
2017-08-14T00:45:14.185Z,4.60
2017-08-14T00:47:41.935Z,4.00
2017-08-14T00:50:09.717Z,4.07
2017-08-14T00:52:37.515Z,4.00
2017-08-14T00:55:05.265Z,4.00
2017-08-14T00:57:33.002Z,4.70
2017-08-14T01:00:00.747Z,4.50
2017-08-14T01:02:29.238Z,4.10
2017-08-14T01:04:56.974Z,4.00
2017-08-14T01:07:25.693Z,3.97
2017-08-14T01:09:53.414Z,4.37
2017-08-14T01:12:21.139Z,4.60
2017-08-14T01:14:48.874Z,4.17
2017-08-14T01:17:16.614Z,3.67
2017-08-14T01:19:44.357Z,4.37
2017-08-14T01:22:12.883Z,4.00
2017-08-14T01:24:40.626Z,4.83
2017-08-14T01:27:08.368Z,4.27
2017-08-14T01:29:36.112Z,4.17
2017-08-14T01:32:03.847Z,4.00
2017-08-14T01:34:31.585Z,4.40
2017-08-14T01:36:59.308Z,4.40
2017-08-14T01:39:27.868Z,4.93
2017-08-14T01:41:55.987Z,4.40
2017-08-14T01:44:23.715Z,4.40
2017-08-14T01:46:51.454Z,4.10
2017-08-14T01:49:19.258Z,4.70
2017-08-14T01:51:47.763Z,4.23
2017-08-14T01:54:15.503Z,4.23
2017-08-14T01:56:44.014Z,4.20
2017-08-14T01:59:11.739Z,4.43
2017-08-14T02:01:40.271Z,4.27
2017-08-14T02:04:07.999Z,4.37
2017-08-14T02:06:36.115Z,4.13
2017-08-14T02:09:03.935Z,4.07
2017-08-14T02:11:33.246Z,4.37
2017-08-14T02:14:00.994Z,4.20
2017-08-14T02:16:28.718Z,4.53
2017-08-14T02:18:56.444Z,4.33
2017-08-14T02:21:24.171Z,4.80
2017-08-14T02:23:52.759Z,3.97
2017-08-14T02:26:20.480Z,3.80
2017-08-14T02:28:48.197Z,4.70
2017-08-14T02:31:16.695Z,4.10
2017-08-14T02:33:44.410Z,4.30
2017-08-14T02:36:12.146Z,4.60
2017-08-14T02:38:39.894Z,4.70
2017-08-14T02:41:07.610Z,4.17
2017-08-14T02:43:35.351Z,5.37
2017-08-14T02:46:03.082Z,4.33
2017-08-14T02:48:30.823Z,4.70
2017-08-14T02:50:59.888Z,4.93
2017-08-14T02:53:27.632Z,4.07
2017-08-14T02:55:56.328Z,4.40
2017-08-14T02:58:24.063Z,4.10
2017-08-14T03:00:51.822Z,4.30
2017-08-14T03:03:19.546Z,4.50
2017-08-14T03:05:47.265Z,4.03
2017-08-14T03:08:15.002Z,4.40
2017-08-14T03:10:42.729Z,4.63
2017-08-14T03:13:10.464Z,5.10
2017-08-14T03:15:38.203Z,4.70
2017-08-14T03:18:05.959Z,4.93
2017-08-14T03:20:33.679Z,4.53
2017-08-14T03:23:01.399Z,4.40
2017-08-14T03:25:29.142Z,4.50
2017-08-14T03:27:57.664Z,4.43
2017-08-14T03:30:25.395Z,4.97
2017-08-14T03:32:53.126Z,4.07
2017-08-14T03:35:20.853Z,4.70
2017-08-14T03:37:48.594Z,4.90
2017-08-14T03:40:16.330Z,4.13
2017-08-14T03:42:44.062Z,4.77
2017-08-14T03:45:11.779Z,4.67
2017-08-14T03:47:39.512Z,4.60
2017-08-14T03:50:08.007Z,5.67
2017-08-14T03:52:36.130Z,4.80
2017-08-14T03:55:03.872Z,4.70
2017-08-14T03:57:31.605Z,4.33
2017-08-14T04:00:00.178Z,3.63
2017-08-14T04:02:28.715Z,4.77
2017-08-14T04:04:56.435Z,4.30
2017-08-14T04:07:24.160Z,4.63
2017-08-14T04:09:51.880Z,4.60
2017-08-14T04:12:19.627Z,4.30
2017-08-14T04:14:47.347Z,4.80
2017-08-14T04:17:15.089Z,4.60
2017-08-14T04:19:42.808Z,4.47
2017-08-14T04:22:11.307Z,4.30
2017-08-14T04:24:39.054Z,3.93
2017-08-14T04:27:06.791Z,4.73
2017-08-14T04:29:34.553Z,4.90
2017-08-14T04:32:03.333Z,4.53
2017-08-14T04:34:31.081Z,4.90
2017-08-14T04:36:58.814Z,4.73
2017-08-14T04:39:26.536Z,4.67
2017-08-14T04:41:54.267Z,4.33
2017-08-14T04:44:21.981Z,4.20
2017-08-14T04:46:49.718Z,4.43
2017-08-14T04:49:17.451Z,4.33
2017-08-14T04:51:45.203Z,4.70
2017-08-14T04:54:12.934Z,4.70
2017-08-14T04:56:41.435Z,4.33
2017-08-14T04:59:09.165Z,4.57
2017-08-14T05:01:36.902Z,4.27
2017-08-14T05:04:04.625Z,4.90
2017-08-14T05:06:32.354Z,4.70
2017-08-14T05:09:00.087Z,4.17
2017-08-14T05:11:27.821Z,4.63
2017-08-14T05:13:56.781Z,3.90
2017-08-14T05:16:24.516Z,4.17
2017-08-14T05:18:52.242Z,4.23
2017-08-14T05:21:19.975Z,4.50
2017-08-14T05:23:48.103Z,4.47
2017-08-14T05:26:15.814Z,4.23
2017-08-14T05:28:43.552Z,5.43
2017-08-14T05:31:11.271Z,5.37
2017-08-14T05:33:39.001Z,5.77
2017-08-14T05:36:07.494Z,4.50
2017-08-14T05:38:35.225Z,4.70
2017-08-14T05:41:03.037Z,4.37
2017-08-14T05:43:30.779Z,4.90
2017-08-14T05:45:59.407Z,4.67
2017-08-14T05:48:27.146Z,4.20
2017-08-14T05:50:54.873Z,4.17
2017-08-14T05:53:22.615Z,4.43
2017-08-14T05:55:50.326Z,4.07
2017-08-14T05:58:18.047Z,4.73
2017-08-14T06:00:45.776Z,4.63
2017-08-14T06:03:13.557Z,5.20
2017-08-14T06:05:41.303Z,4.40
2017-08-14T06:08:09.023Z,5.03
2017-08-14T06:10:36.745Z,5.03
2017-08-14T06:13:04.526Z,4.90
2017-08-14T06:15:32.263Z,5.40
2017-08-14T06:18:00.856Z,4.97
2017-08-14T06:20:28.620Z,4.00
2017-08-14T06:22:57.121Z,4.53
2017-08-14T06:25:25.019Z,5.30
2017-08-14T06:27:54.019Z,5.03
2017-08-14T06:30:22.140Z,4.43
2017-08-14T06:32:49.899Z,4.83
2017-08-14T06:35:18.020Z,4.77
2017-08-14T06:37:47.360Z,4.60
2017-08-14T06:40:15.129Z,4.53
2017-08-14T06:42:42.843Z,4.53
2017-08-14T06:45:10.578Z,5.27
2017-08-14T06:47:38.314Z,4.40
2017-08-14T06:50:06.049Z,4.90
2017-08-14T06:52:33.796Z,4.90
2017-08-14T06:55:02.303Z,5.40
2017-08-14T06:57:30.048Z,4.50
2017-08-14T06:59:57.824Z,4.97
2017-08-14T07:02:25.559Z,5.17
2017-08-14T07:04:53.275Z,4.73
2017-08-14T07:07:21.002Z,4.77
2017-08-14T07:09:49.493Z,5.17
2017-08-14T07:12:17.251Z,4.60
2017-08-14T07:14:45.407Z,5.07
2017-08-14T07:17:13.122Z,5.20
2017-08-14T07:19:40.862Z,5.10
2017-08-14T07:22:09.386Z,5.17
2017-08-14T07:24:38.242Z,4.80
2017-08-14T07:27:06.012Z,4.93
2017-08-14T07:29:33.740Z,5.17
2017-08-14T07:32:01.460Z,5.60
2017-08-14T07:34:29.971Z,5.00
2017-08-14T07:36:57.707Z,5.87
2017-08-14T07:39:25.448Z,4.90
2017-08-14T07:41:53.583Z,5.87
2017-08-14T07:44:21.324Z,6.27
2017-08-14T07:46:49.044Z,5.47
2017-08-14T07:49:16.776Z,6.47
2017-08-14T07:51:45.263Z,6.10
2017-08-14T07:54:13.394Z,6.17
2017-08-14T07:56:43.221Z,6.53
2017-08-14T07:59:11.336Z,7.83
2017-08-14T08:01:39.050Z,7.47
2017-08-14T08:04:06.791Z,8.33
2017-08-14T08:06:34.740Z,8.97
2017-08-14T08:09:03.438Z,8.63
2017-08-14T08:11:31.152Z,8.77
2017-08-14T08:13:59.282Z,7.50
2017-08-14T08:16:26.999Z,7.50
2017-08-14T08:18:54.716Z,7.47
2017-08-14T08:21:23.622Z,7.37
2017-08-14T08:23:52.162Z,6.17
2017-08-14T08:26:20.115Z,6.13
2017-08-14T08:28:47.857Z,6.30
2017-08-14T08:31:16.285Z,5.70
2017-08-14T08:33:44.026Z,6.30
2017-08-14T08:36:11.815Z,6.20
2017-08-14T08:38:39.934Z,5.60
2017-08-14T08:41:07.735Z,5.43
2017-08-14T08:43:35.468Z,5.20
2017-08-14T08:46:03.188Z,5.80
2017-08-14T08:48:30.909Z,6.07
2017-08-14T08:50:59.402Z,5.20
2017-08-14T08:53:27.137Z,6.07
2017-08-14T08:55:55.250Z,5.70
2017-08-14T08:58:22.990Z,5.40
2017-08-14T09:00:50.754Z,5.97
2017-08-14T09:03:18.863Z,5.97
2017-08-14T09:05:46.903Z,5.70
2017-08-14T09:08:15.025Z,5.67
2017-08-14T09:10:42.779Z,5.83
2017-08-14T09:13:10.490Z,6.07
2017-08-14T09:15:38.195Z,5.57
2017-08-14T09:18:06.623Z,5.40
2017-08-14T09:20:35.071Z,5.60
2017-08-14T09:23:03.146Z,5.50
2017-08-14T09:25:30.820Z,5.90
2017-08-14T09:27:58.509Z,5.10
2017-08-14T09:30:26.967Z,6.30
2017-08-14T09:32:54.649Z,5.20
2017-08-14T09:35:22.323Z,5.27
2017-08-14T09:37:50.016Z,6.03
2017-08-14T09:40:17.696Z,5.97
2017-08-14T09:42:45.368Z,5.80
2017-08-14T09:45:14.701Z,6.03
2017-08-14T09:47:42.416Z,5.67
2017-08-14T09:50:10.481Z,5.33
2017-08-14T09:52:38.161Z,5.23
2017-08-14T09:55:05.875Z,5.00
2017-08-14T09:57:34.370Z,5.10
2017-08-14T10:00:02.088Z,5.23
2017-08-14T10:02:29.816Z,5.20
2017-08-14T10:04:58.505Z,4.87
2017-08-14T10:07:26.256Z,5.00
2017-08-14T10:09:53.987Z,5.40
2017-08-14T10:12:22.480Z,5.33
2017-08-14T10:14:50.228Z,5.10
2017-08-14T10:17:18.739Z,5.60
2017-08-14T10:19:46.463Z,5.63
2017-08-14T10:22:14.208Z,5.60
2017-08-14T10:24:42.324Z,5.33
2017-08-14T10:27:10.809Z,6.07
2017-08-14T10:29:38.532Z,6.10
2017-08-14T10:32:06.270Z,5.20
2017-08-14T10:34:33.979Z,5.93
2017-08-14T10:37:02.488Z,5.53
2017-08-14T10:39:30.200Z,5.67
2017-08-14T10:41:57.915Z,5.53
2017-08-14T10:44:25.642Z,5.90
2017-08-14T10:46:53.372Z,5.47
2017-08-14T10:49:21.091Z,6.23
2017-08-14T10:51:49.959Z,5.60
2017-08-14T10:54:17.667Z,5.60
2017-08-14T10:56:45.420Z,6.37
2017-08-14T10:59:13.148Z,6.00
2017-08-14T11:01:40.935Z,6.53
2017-08-14T11:04:08.664Z,6.20
2017-08-14T11:06:36.380Z,6.10
2017-08-14T11:09:04.242Z,7.20
2017-08-14T11:11:31.962Z,7.20
2017-08-14T11:13:59.697Z,7.17
2017-08-14T11:16:27.424Z,7.20
2017-08-14T11:18:55.144Z,7.33
2017-08-14T11:21:22.854Z,6.90
2017-08-14T11:23:50.587Z,6.80
2017-08-14T11:26:19.074Z,6.80
2017-08-14T11:28:47.579Z,7.07
2017-08-14T11:31:15.273Z,6.10
2017-08-14T11:33:42.999Z,6.77
2017-08-14T11:36:10.719Z,6.80
2017-08-14T11:38:38.443Z,6.20
2017-08-14T11:41:06.613Z,6.00
2017-08-14T11:43:34.334Z,6.80
2017-08-14T11:46:02.052Z,5.77
2017-08-14T11:48:29.767Z,6.80
2017-08-14T11:50:57.498Z,6.50
2017-08-14T11:53:25.216Z,6.33
2017-08-14T11:55:53.867Z,6.70
2017-08-14T11:58:21.583Z,7.03
2017-08-14T12:00:49.739Z,6.70
2017-08-14T12:03:17.497Z,6.77
2017-08-14T12:05:45.226Z,6.60
2017-08-14T12:08:12.950Z,7.57
2017-08-14T12:10:40.663Z,7.20
2017-08-14T12:13:08.397Z,11.13
2017-08-14T12:15:36.315Z,7.83
2017-08-14T12:18:04.035Z,6.77
2017-08-14T12:20:31.814Z,7.67
2017-08-14T12:23:00.647Z,6.40
2017-08-14T12:25:28.443Z,6.70
2017-08-14T12:27:56.170Z,6.10
2017-08-14T12:30:26.114Z,6.27
2017-08-14T12:32:54.478Z,5.17
2017-08-14T12:35:23.147Z,5.70
2017-08-14T12:37:50.875Z,5.87
2017-08-14T12:40:18.584Z,4.83
2017-08-14T12:42:47.310Z,5.80
2017-08-14T12:45:15.031Z,5.20
2017-08-14T12:47:42.751Z,5.97
2017-08-14T12:50:10.479Z,4.90
2017-08-14T12:52:38.193Z,5.77
2017-08-14T12:55:06.696Z,5.20
2017-08-14T12:57:34.431Z,5.43
2017-08-14T13:00:02.163Z,5.60
2017-08-14T13:02:29.879Z,5.10
2017-08-14T13:04:57.594Z,5.23
2017-08-14T13:07:25.314Z,5.10
2017-08-14T13:09:53.038Z,4.10
2017-08-14T13:12:21.056Z,4.67
2017-08-14T13:14:48.779Z,4.40
2017-08-14T13:17:16.503Z,3.80
2017-08-14T13:19:45.471Z,4.13
2017-08-14T13:22:13.195Z,3.77
2017-08-14T13:24:40.910Z,3.90
2017-08-14T13:27:09.590Z,3.30
2017-08-14T13:29:38.690Z,3.80
2017-08-14T13:32:07.006Z,3.73
2017-08-14T13:34:34.738Z,3.10
2017-08-14T13:37:02.444Z,3.30
2017-08-14T13:39:31.387Z,2.93
2017-08-14T13:41:59.100Z,2.70
2017-08-14T13:44:26.820Z,2.50
2017-08-14T13:46:54.543Z,2.70
2017-08-14T13:49:22.291Z,2.77
2017-08-14T13:51:50.013Z,3.00
2017-08-14T13:54:17.820Z,2.60
2017-08-14T13:56:45.603Z,2.63
2017-08-14T13:59:13.388Z,2.73
2017-08-14T14:01:42.542Z,2.87
2017-08-14T14:04:10.243Z,2.83
2017-08-14T14:06:40.465Z,2.73
2017-08-14T14:09:08.172Z,2.80
2017-08-14T14:11:35.957Z,3.30
2017-08-14T14:14:03.683Z,3.17
2017-08-14T14:16:32.617Z,3.30
2017-08-14T14:19:00.367Z,2.83
2017-08-14T14:21:28.096Z,3.13
2017-08-14T14:23:55.822Z,3.13
2017-08-14T14:26:23.542Z,2.87
2017-08-14T14:28:51.259Z,3.23
2017-08-14T14:31:18.975Z,2.83
2017-08-14T14:33:46.709Z,3.30
2017-08-14T14:36:14.418Z,3.33
2017-08-14T14:38:42.130Z,3.40
2017-08-14T14:41:09.838Z,3.40
2017-08-14T14:43:37.549Z,3.80
2017-08-14T14:46:05.275Z,3.67
2017-08-14T14:48:33.769Z,3.80
2017-08-14T14:51:01.479Z,4.00
2017-08-14T14:53:30.675Z,4.10
2017-08-14T14:55:58.384Z,4.10
2017-08-14T14:58:26.312Z,4.50
2017-08-14T15:00:54.047Z,4.30
2017-08-14T15:03:21.804Z,4.30
2017-08-14T15:05:49.517Z,4.10
2017-08-14T15:08:17.253Z,4.20
2017-08-14T15:10:44.994Z,4.20
2017-08-14T15:13:12.739Z,4.20
2017-08-14T15:15:40.475Z,4.13
2017-08-14T15:18:08.191Z,4.53
2017-08-14T15:20:35.913Z,4.43
2017-08-14T15:23:03.628Z,4.83
2017-08-14T15:25:32.686Z,4.33
2017-08-14T15:28:00.411Z,4.63
2017-08-14T15:30:28.135Z,4.80
2017-08-14T15:32:56.507Z,4.20
2017-08-14T15:35:24.214Z,4.93
2017-08-14T15:37:51.930Z,5.20
2017-08-14T15:40:19.659Z,4.97
2017-08-14T15:42:47.389Z,5.50
2017-08-14T15:45:15.131Z,5.20
2017-08-14T15:47:42.850Z,5.70
2017-08-14T15:50:11.466Z,5.23
2017-08-14T15:52:39.603Z,4.90
2017-08-14T15:55:07.311Z,5.43
2017-08-14T15:57:36.620Z,5.57
2017-08-14T16:00:04.747Z,5.43
2017-08-14T16:02:33.229Z,5.27
2017-08-14T16:05:01.734Z,5.70
2017-08-14T16:07:29.743Z,5.70
2017-08-14T16:09:57.467Z,5.73
2017-08-14T16:12:25.174Z,5.50
2017-08-14T16:14:52.895Z,5.40
2017-08-14T16:17:21.003Z,5.20
2017-08-14T16:19:48.794Z,5.70
2017-08-14T16:22:16.534Z,5.83
2017-08-14T16:24:44.260Z,5.50
2017-08-14T16:27:12.742Z,5.83
2017-08-14T16:29:40.447Z,6.17
2017-08-14T16:32:09.399Z,5.80
2017-08-14T16:34:37.535Z,6.00
2017-08-14T16:37:06.014Z,5.90
2017-08-14T16:39:33.780Z,5.40
2017-08-14T16:42:03.442Z,6.13
2017-08-14T16:44:31.191Z,6.27
2017-08-14T16:46:58.902Z,5.87
2017-08-14T16:49:26.618Z,5.90
2017-08-14T16:51:55.128Z,6.00
2017-08-14T16:54:22.859Z,6.20
2017-08-14T16:56:50.569Z,6.03
2017-08-14T16:59:18.298Z,6.10
2017-08-14T17:01:52.046Z,6.20
2017-08-14T17:04:19.882Z,5.00
2017-08-14T17:06:47.615Z,5.33
2017-08-14T17:09:15.339Z,5.53
2017-08-14T17:11:43.044Z,5.40
2017-08-14T17:14:10.763Z,6.20
2017-08-14T17:16:38.898Z,5.43
2017-08-14T17:19:08.035Z,5.73
2017-08-14T17:21:35.753Z,5.40
2017-08-14T17:24:03.471Z,6.00
2017-08-14T17:26:31.191Z,5.20
2017-08-14T17:28:58.919Z,5.20
2017-08-14T17:31:26.639Z,5.90
2017-08-14T17:33:54.343Z,6.00
2017-08-14T17:36:22.066Z,7.23
2017-08-14T17:38:49.774Z,5.67
2017-08-14T17:41:17.482Z,5.60
2017-08-14T17:43:45.233Z,5.40
2017-08-14T17:46:12.943Z,6.43
2017-08-14T17:48:40.665Z,5.77
2017-08-14T17:51:09.194Z,6.90
2017-08-14T17:53:36.906Z,6.33
2017-08-14T17:56:06.516Z,8.83
2017-08-14T17:58:34.218Z,8.47
2017-08-14T18:01:02.821Z,7.20
2017-08-14T18:03:30.564Z,7.70
2017-08-14T18:05:58.279Z,6.60
2017-08-14T18:08:25.994Z,7.50
2017-08-14T18:10:53.703Z,6.60
2017-08-14T18:13:21.435Z,8.13
2017-08-14T18:15:49.198Z,6.40
2017-08-14T18:18:17.841Z,7.03
2017-08-14T18:20:45.538Z,7.03
2017-08-14T18:23:13.255Z,8.00
2017-08-14T18:25:41.331Z,8.60
2017-08-14T18:28:09.050Z,7.10
2017-08-14T18:30:38.007Z,8.00
2017-08-14T18:33:05.722Z,8.10
2017-08-14T18:35:34.120Z,9.63
2017-08-14T18:38:02.329Z,8.57
2017-08-14T18:40:30.047Z,8.17
2017-08-14T18:42:57.769Z,7.07
2017-08-14T18:45:25.487Z,6.60
2017-08-14T18:47:54.466Z,5.73
2017-08-14T18:50:22.168Z,6.17
2017-08-14T18:52:49.911Z,6.00
2017-08-14T18:55:17.610Z,5.83
2017-08-14T18:57:50.189Z,6.53
2017-08-14T19:03:12.146Z,5.80
2017-08-14T19:08:36.912Z,6.50
2017-08-14T19:11:02.718Z,4.77
2017-08-14T19:13:31.468Z,5.37
2017-08-14T19:15:59.608Z,5.40
2017-08-14T19:18:27.347Z,5.60
2017-08-14T19:20:55.835Z,5.30
2017-08-14T19:23:23.556Z,5.70
2017-08-14T19:25:51.898Z,6.03
2017-08-14T19:28:20.558Z,5.23
2017-08-14T19:30:48.674Z,4.83
2017-08-14T19:33:16.384Z,5.50
2017-08-14T19:35:44.149Z,6.30
2017-08-14T19:38:11.904Z,7.33
2017-08-14T19:40:39.665Z,8.97
2017-08-14T19:43:08.260Z,8.27
2017-08-14T19:45:36.026Z,7.40
2017-08-14T19:48:04.166Z,8.10
2017-08-14T19:50:31.907Z,8.67
2017-08-14T19:53:10.143Z,8.83
2017-08-14T19:55:37.866Z,8.10
2017-08-14T19:58:05.588Z,8.70
2017-08-14T20:00:33.311Z,8.13
2017-08-14T20:03:01.663Z,7.90
2017-08-14T20:05:29.667Z,8.13
2017-08-14T20:07:57.416Z,8.93
2017-08-14T20:10:26.036Z,7.80
2017-08-14T20:12:53.750Z,7.70
2017-08-14T20:15:21.463Z,8.20
2017-08-14T20:17:50.190Z,7.27
2017-08-14T20:20:17.950Z,7.10
2017-08-14T20:22:46.455Z,7.07
2017-08-14T20:25:14.211Z,6.60
2017-08-14T20:27:43.918Z,7.10
2017-08-14T20:30:12.442Z,6.60
2017-08-14T20:32:40.162Z,7.33
2017-08-14T20:35:07.928Z,6.60
2017-08-14T20:37:35.642Z,6.87
2017-08-14T20:40:04.630Z,6.77
2017-08-14T20:42:32.342Z,6.87
2017-08-14T20:45:01.187Z,6.97
2017-08-14T20:47:29.663Z,7.40
2017-08-14T20:49:57.382Z,7.83
2017-08-14T20:52:25.863Z,7.60
2017-08-14T20:57:46.979Z,6.67
2017-08-14T21:00:14.719Z,7.30
2017-08-14T21:02:42.430Z,6.93
2017-08-14T21:05:12.175Z,6.90
2017-08-14T21:07:39.890Z,7.30
2017-08-14T21:10:07.614Z,7.67
2017-08-14T21:12:36.095Z,8.23
2017-08-14T21:15:03.830Z,8.10
2017-08-14T21:17:31.944Z,7.80
2017-08-14T21:20:00.599Z,7.80
2017-08-14T21:22:28.315Z,7.13
2017-08-14T21:24:56.782Z,7.50
2017-08-14T21:27:24.494Z,6.80
2017-08-14T21:29:53.301Z,6.67
2017-08-14T21:32:21.002Z,6.93
2017-08-14T21:34:48.922Z,7.20
2017-08-14T21:37:17.266Z,8.20
2017-08-14T21:39:44.989Z,8.00
2017-08-14T21:42:12.721Z,7.90
2017-08-14T21:44:40.610Z,7.30
2017-08-14T21:47:08.738Z,7.20
2017-08-14T21:49:37.250Z,7.20
2017-08-14T21:52:05.347Z,8.00
2017-08-14T21:54:33.155Z,8.47
2017-08-14T21:57:01.634Z,7.97
2017-08-14T21:59:29.333Z,8.33
2017-08-14T22:01:57.050Z,7.07
2017-08-14T22:04:24.838Z,6.97
2017-08-14T22:06:52.558Z,6.60
2017-08-14T22:09:20.358Z,7.67
2017-08-14T22:11:48.220Z,8.13
2017-08-14T22:14:16.738Z,7.60
2017-08-14T22:16:44.439Z,7.07
2017-08-14T22:19:12.155Z,6.20
2017-08-14T22:21:39.921Z,6.17
2017-08-14T22:24:07.638Z,6.20
2017-08-14T22:26:35.588Z,6.23
2017-08-14T22:31:59.646Z,6.03
2017-08-14T22:34:27.368Z,6.00
2017-08-14T22:36:55.090Z,6.37
2017-08-14T22:39:22.818Z,5.53
2017-08-14T22:41:51.300Z,6.17
2017-08-14T22:44:19.970Z,5.40
2017-08-14T22:46:48.058Z,5.77
2017-08-14T22:49:15.790Z,5.87
2017-08-14T22:51:43.492Z,5.27
2017-08-14T22:54:11.195Z,5.97
2017-08-14T22:56:39.895Z,5.63
2017-08-14T22:59:09.168Z,6.20
2017-08-14T23:01:36.871Z,5.70
2017-08-14T23:06:59.318Z,5.33
2017-08-14T23:09:27.046Z,5.10
2017-08-14T23:11:54.758Z,5.43
2017-08-14T23:14:23.300Z,5.13
2017-08-14T23:19:46.058Z,5.60
2017-08-14T23:22:13.790Z,5.60
2017-08-14T23:24:41.497Z,5.60
2017-08-14T23:27:09.215Z,5.10
2017-08-14T23:29:36.922Z,5.97
2017-08-14T23:32:06.720Z,5.30
2017-08-14T23:34:34.419Z,5.30
2017-08-14T23:37:02.879Z,5.20
2017-08-14T23:39:30.654Z,5.93
2017-08-14T23:41:58.362Z,5.30
2017-08-14T23:44:26.074Z,5.57
2017-08-14T23:46:53.791Z,5.57
2017-08-14T23:49:21.550Z,5.13
2017-08-14T23:51:49.280Z,5.37
2017-08-14T23:54:17.006Z,5.33
2017-08-14T23:56:45.494Z,5.07
2017-08-14T23:59:13.208Z,5.17
